Baliza, Brazil
Current Conditions -  °F | °C
As of 8:15 AM on Thursday 18 Dec 2014 (Local Time) from SBBW Reporting Station
Light Rain Light Rain  
Wind Chill: 72°   Ceiling: 9000
Heat Index: 72°   Visibility: 6mi
Dew Point: 72°   Wind: 6mph
Humidity: 100%   Direction: 360°N
Pressure: 29.88"   Gusts: NA
Location:  16.2°S, 52.54°W
Report Text: SBBW 181015Z 36005KT 9999 -RA SCT004 SCT015 BKN090 22/22 Q1012
Loading
Personal Weather Stations






























Interactive Weather Map New forecast layout! Learn more

10-Day Weather Forecast

Advertisements
Track Severe Weather on mobile